createdAt,value
2019-01-18T00:00:08.296Z,97759.50
2019-01-18T00:02:40.074Z,97768.00
2019-01-18T00:05:11.887Z,97759.50
2019-01-18T00:07:44.312Z,97763.67
2019-01-18T00:10:16.228Z,97768.00
2019-01-18T00:12:48.116Z,97774.00
2019-01-18T00:15:19.930Z,97784.14
2019-01-18T00:17:51.724Z,97779.77
2019-01-18T00:20:23.528Z,97786.70
2019-01-18T00:22:55.792Z,97790.03
2019-01-18T00:25:27.923Z,97787.62
2019-01-18T00:27:59.760Z,97797.53
2019-01-18T00:30:31.608Z,97797.47
2019-01-18T00:33:03.791Z,97802.61
2019-01-18T00:35:35.847Z,97801.71
2019-01-18T00:38:10.538Z,97800.92
2019-01-18T00:40:42.457Z,97794.64
2019-01-18T00:43:14.244Z,97800.26
2019-01-18T00:45:46.026Z,97799.61
2019-01-18T00:48:17.914Z,97799.25
2019-01-18T00:50:50.876Z,97802.42
2019-01-18T00:53:22.770Z,97799.41
2019-01-18T00:55:54.538Z,97805.53
2019-01-18T00:58:26.313Z,97812.03
2019-01-18T01:00:58.066Z,97816.13
2019-01-18T01:03:29.835Z,97819.46
2019-01-18T01:06:01.578Z,97826.14
2019-01-18T01:08:33.391Z,97824.84
2019-01-18T01:11:05.204Z,97824.17
2019-01-18T01:13:37.074Z,97832.66
2019-01-18T01:16:09.290Z,97831.02
2019-01-18T01:18:41.316Z,97830.50
2019-01-18T01:21:13.139Z,97837.19
2019-01-18T01:23:45.000Z,97839.61
2019-01-18T01:26:17.103Z,97847.77
2019-01-18T01:28:49.288Z,97848.73
2019-01-18T01:31:21.387Z,97845.25
2019-01-18T01:33:53.364Z,97856.42
2019-01-18T01:36:25.171Z,97858.16
2019-01-18T01:38:57.768Z,97866.16
2019-01-18T01:41:29.835Z,97864.74
2019-01-18T01:44:01.571Z,97867.72
2019-01-18T01:46:34.062Z,97861.76
2019-01-18T01:49:06.376Z,97868.94
2019-01-18T01:51:38.525Z,97866.53
2019-01-18T01:54:10.906Z,97869.39
2019-01-18T01:56:42.974Z,97869.08
2019-01-18T01:59:14.865Z,97875.30
2019-01-18T02:01:46.618Z,97873.69
2019-01-18T02:04:18.385Z,97878.77
2019-01-18T02:06:50.131Z,97882.27
2019-01-18T02:09:21.889Z,97881.82
2019-01-18T02:11:53.735Z,97886.91
2019-01-18T02:14:25.989Z,97888.81
2019-01-18T02:16:58.023Z,97894.65
2019-01-18T02:19:29.777Z,97897.52
2019-01-18T02:22:01.533Z,97902.28
2019-01-18T02:24:33.302Z,97897.86
2019-01-18T02:27:05.053Z,97897.02
2019-01-18T02:29:36.814Z,97888.60
2019-01-18T02:32:08.624Z,97884.29
2019-01-18T02:34:40.555Z,97890.20
2019-01-18T02:37:12.360Z,97903.95
2019-01-18T02:39:44.115Z,97909.81
2019-01-18T02:42:15.894Z,97910.48
2019-01-18T02:44:47.643Z,97910.98
2019-01-18T02:47:19.365Z,97912.18
2019-01-18T02:49:51.470Z,97908.36
2019-01-18T02:52:23.231Z,97910.23
2019-01-18T02:54:55.002Z,97920.13
2019-01-18T02:57:26.732Z,97919.03
2019-01-18T03:00:04.780Z,97912.34
2019-01-18T03:02:31.956Z,97926.13
2019-01-18T03:05:04.071Z,97930.80
2019-01-18T03:07:35.812Z,97929.95
2019-01-18T03:10:13.611Z,97937.34
2019-01-18T03:12:45.345Z,97934.57
2019-01-18T03:15:17.954Z,97948.21
2019-01-18T03:17:50.392Z,97949.16
2019-01-18T03:20:22.446Z,97953.64
2019-01-18T03:22:54.201Z,97967.92
2019-01-18T03:25:28.862Z,97966.87
2019-01-18T03:28:00.597Z,97979.03
2019-01-18T03:30:32.366Z,97980.05
2019-01-18T03:33:04.332Z,97980.75
2019-01-18T03:35:36.214Z,97987.48
2019-01-18T03:38:07.971Z,97988.25
2019-01-18T03:40:40.222Z,97995.59
2019-01-18T03:43:12.720Z,98002.06
2019-01-18T03:45:44.777Z,97996.73
2019-01-18T03:48:16.569Z,98008.11
2019-01-18T03:50:48.320Z,98009.06
2019-01-18T03:53:20.049Z,98016.65
2019-01-18T03:55:51.907Z,98012.93
2019-01-18T03:58:24.204Z,98020.02
2019-01-18T04:00:55.991Z,98024.95
2019-01-18T04:03:27.720Z,98021.33
2019-01-18T04:05:59.504Z,98029.17
2019-01-18T04:08:31.250Z,98033.09
2019-01-18T04:11:03.016Z,98038.72
2019-01-18T04:13:35.018Z,98041.69
2019-01-18T04:16:07.965Z,98048.78
2019-01-18T04:18:39.979Z,98055.61
2019-01-18T04:21:12.437Z,98052.99
2019-01-18T04:23:47.684Z,98062.80
2019-01-18T04:26:19.433Z,98065.22
2019-01-18T04:28:51.191Z,98071.95
2019-01-18T04:31:23.100Z,98079.34
2019-01-18T04:33:55.257Z,98081.46
2019-01-18T04:36:27.316Z,98088.84
2019-01-18T04:38:59.119Z,98094.73
2019-01-18T04:41:30.859Z,98094.73
2019-01-18T04:44:02.623Z,98088.59
2019-01-18T04:46:34.357Z,98095.02
2019-01-18T04:49:06.118Z,98092.02
2019-01-18T04:51:38.302Z,98093.42
2019-01-18T04:54:10.550Z,98098.39
2019-01-18T04:56:42.363Z,98097.93
2019-01-18T04:59:14.580Z,98107.61
2019-01-18T05:01:46.608Z,98099.59
2019-01-18T05:04:19.106Z,98106.89
2019-01-18T05:06:50.872Z,98109.86
2019-01-18T05:09:22.633Z,98111.72
2019-01-18T05:11:54.366Z,98123.68
2019-01-18T05:14:26.713Z,98119.77
2019-01-18T05:16:58.473Z,98127.41
2019-01-18T05:19:30.679Z,98132.02
2019-01-18T05:22:02.830Z,98126.69
2019-01-18T05:24:34.585Z,98135.08
2019-01-18T05:27:06.333Z,98141.06
2019-01-18T05:29:38.510Z,98144.89
2019-01-18T05:32:11.412Z,98145.34
2019-01-18T05:34:43.454Z,98144.59
2019-01-18T05:37:15.185Z,98152.83
2019-01-18T05:39:46.973Z,98163.38
2019-01-18T05:42:18.882Z,98170.19
2019-01-18T05:44:50.769Z,98178.02
2019-01-18T05:47:22.638Z,98177.84
2019-01-18T05:49:54.371Z,98188.94
2019-01-18T05:52:26.134Z,98191.09
2019-01-18T05:54:57.924Z,98193.71
2019-01-18T05:57:31.369Z,98203.70
2019-01-18T06:00:03.257Z,98205.02
2019-01-18T06:02:35.047Z,98210.34
2019-01-18T06:05:10.445Z,98218.58
2019-01-18T06:07:42.783Z,98223.80
2019-01-18T06:10:15.087Z,98231.25
2019-01-18T06:12:46.852Z,98243.86
2019-01-18T06:15:18.731Z,98241.89
2019-01-18T06:17:50.602Z,98246.30
2019-01-18T06:20:22.425Z,98251.62
2019-01-18T06:22:54.303Z,98250.95
2019-01-18T06:25:26.076Z,98255.06
2019-01-18T06:27:58.358Z,98261.59
2019-01-18T06:30:30.405Z,98255.16
2019-01-18T06:33:02.168Z,98265.15
2019-01-18T06:35:34.329Z,98268.61
2019-01-18T06:38:06.679Z,98270.74
2019-01-18T06:40:38.418Z,98277.55
2019-01-18T06:43:10.283Z,98279.80
2019-01-18T06:45:42.101Z,98281.28
2019-01-18T06:48:17.318Z,98279.34
2019-01-18T06:50:49.322Z,98283.35
2019-01-18T06:53:21.112Z,98286.60
2019-01-18T06:55:53.010Z,98302.28
2019-01-18T06:58:24.778Z,98303.13
2019-01-18T07:00:56.541Z,98306.66
2019-01-18T07:03:28.432Z,98316.92
2019-01-18T07:06:00.371Z,98322.33
2019-01-18T07:08:32.116Z,98324.03
2019-01-18T07:11:03.876Z,98330.84
2019-01-18T07:13:35.637Z,98335.21
2019-01-18T07:16:07.463Z,98333.63
2019-01-18T07:18:39.341Z,98336.16
2019-01-18T07:21:11.197Z,98342.41
2019-01-18T07:23:42.975Z,98338.67
2019-01-18T07:26:14.781Z,98343.13
2019-01-18T07:28:46.888Z,98350.61
2019-01-18T07:31:19.068Z,98349.20
2019-01-18T07:33:51.841Z,98361.14
2019-01-18T07:36:43.097Z,98367.84
2019-01-18T07:39:14.926Z,98362.30
2019-01-18T07:41:46.701Z,98367.91
2019-01-18T07:44:18.467Z,98376.38
2019-01-18T07:46:50.209Z,98387.76
2019-01-18T07:49:22.038Z,98384.23
2019-01-18T07:51:53.834Z,98397.30
2019-01-18T07:54:25.627Z,98397.30
2019-01-18T07:56:57.541Z,98405.63
2019-01-18T07:59:29.416Z,98406.76
2019-01-18T08:02:01.175Z,98417.03
2019-01-18T08:04:33.010Z,98415.92
2019-01-18T08:07:04.799Z,98428.90
2019-01-18T08:09:36.526Z,98429.84
2019-01-18T08:12:08.282Z,98439.52
2019-01-18T08:14:40.026Z,98438.92
2019-01-18T08:17:11.783Z,98443.88
2019-01-18T08:19:43.531Z,98447.25
2019-01-18T08:22:15.294Z,98453.87
2019-01-18T08:24:47.046Z,98455.73
2019-01-18T08:27:18.810Z,98469.33
2019-01-18T08:29:50.590Z,98472.23
2019-01-18T08:32:22.495Z,98480.95
2019-01-18T08:34:54.323Z,98490.59
2019-01-18T08:37:26.052Z,98486.49
2019-01-18T08:39:57.801Z,98491.07
2019-01-18T08:42:29.545Z,98488.60
2019-01-18T08:45:01.297Z,98484.33
2019-01-18T08:47:33.131Z,98489.55
2019-01-18T08:50:06.113Z,98491.77
2019-01-18T08:52:36.869Z,98496.91
2019-01-18T08:55:09.971Z,98497.58
2019-01-18T08:57:41.809Z,98504.12
2019-01-18T09:00:17.652Z,98503.17
2019-01-18T09:02:49.744Z,98502.72
2019-01-18T09:05:24.556Z,98510.26
2019-01-18T09:07:56.300Z,98511.77
2019-01-18T09:10:29.280Z,98513.34
2019-01-18T09:13:00.022Z,98521.27
2019-01-18T09:15:31.826Z,98521.38
2019-01-18T09:18:03.583Z,98523.82
2019-01-18T09:20:35.374Z,98531.59
2019-01-18T09:23:07.147Z,98529.34
2019-01-18T09:25:39.290Z,98531.88
2019-01-18T09:28:11.099Z,98530.34
2019-01-18T09:30:42.884Z,98528.50
2019-01-18T09:33:15.045Z,98530.95
2019-01-18T09:35:47.112Z,98525.88
2019-01-18T09:38:18.978Z,98533.66
2019-01-18T09:40:51.362Z,98535.61
2019-01-18T09:43:23.113Z,98542.08
2019-01-18T09:45:54.851Z,98538.52
2019-01-18T09:48:27.162Z,98549.44
2019-01-18T09:51:00.648Z,98549.89
2019-01-18T09:53:32.521Z,98554.49
2019-01-18T09:56:05.215Z,98556.73
2019-01-18T09:58:37.078Z,98553.86
2019-01-18T10:01:41.699Z,98561.59
2019-01-18T10:04:18.017Z,98559.41
2019-01-18T10:06:50.423Z,98558.57
2019-01-18T10:09:22.202Z,98564.14
2019-01-18T10:11:54.058Z,98563.67
2019-01-18T10:14:26.120Z,98562.91
2019-01-18T10:16:57.927Z,98560.19
2019-01-18T10:19:30.679Z,98565.52
2019-01-18T10:22:02.435Z,98554.38
2019-01-18T10:24:34.711Z,98554.75
2019-01-18T10:27:07.416Z,98554.69
2019-01-18T10:29:39.545Z,98557.44
2019-01-18T10:32:11.796Z,98553.30
2019-01-18T10:34:43.850Z,98550.12
2019-01-18T10:37:16.168Z,98543.91
2019-01-18T10:39:48.488Z,98534.12
2019-01-18T10:42:20.822Z,98537.40
2019-01-18T10:44:53.165Z,98530.15
2019-01-18T10:47:25.462Z,98532.20
2019-01-18T10:49:57.781Z,98529.20
2019-01-18T10:52:30.178Z,98531.26
2019-01-18T10:55:03.419Z,98538.21
2019-01-18T10:57:36.110Z,98538.81
2019-01-18T11:00:12.991Z,98543.72
2019-01-18T11:02:45.329Z,98540.85
2019-01-18T11:05:17.757Z,98539.23
2019-01-18T11:07:50.134Z,98543.11
2019-01-18T11:10:22.491Z,98536.50
2019-01-18T11:12:54.805Z,98540.02
2019-01-18T11:15:30.570Z,98537.13
2019-01-18T11:18:02.888Z,98537.66
2019-01-18T11:21:04.494Z,98535.91
2019-01-18T11:23:37.441Z,98534.41
2019-01-18T11:26:09.851Z,98535.59
2019-01-18T11:28:41.613Z,98538.02
2019-01-18T11:31:13.932Z,98540.48
2019-01-18T11:33:46.696Z,98543.96
2019-01-18T11:36:18.856Z,98540.43
2019-01-18T11:38:51.187Z,98540.39
2019-01-18T11:41:23.508Z,98537.11
2019-01-18T11:43:55.815Z,98538.15
2019-01-18T11:46:28.152Z,98544.31
2019-01-18T11:49:00.468Z,98546.45
2019-01-18T11:51:33.151Z,98547.86
2019-01-18T11:54:05.170Z,98547.23
2019-01-18T11:56:37.493Z,98548.92
2019-01-18T11:59:10.068Z,98547.61
2019-01-18T12:01:42.406Z,98549.47
2019-01-18T12:04:14.727Z,98556.88
2019-01-18T12:06:47.065Z,98556.91
2019-01-18T12:09:19.383Z,98554.09
2019-01-18T12:11:51.712Z,98561.69
2019-01-18T12:14:24.035Z,98553.61
2019-01-18T12:16:56.351Z,98544.07
2019-01-18T12:19:28.674Z,98540.91
2019-01-18T12:22:01.039Z,98541.69
2019-01-18T12:24:33.353Z,98531.78
2019-01-18T12:27:05.672Z,98532.41
2019-01-18T12:29:38.288Z,98543.28
2019-01-18T12:32:11.320Z,98539.08
2019-01-18T12:34:42.232Z,98540.11
2019-01-18T12:37:13.872Z,98537.30
2019-01-18T12:39:46.215Z,98528.91
2019-01-18T12:42:18.520Z,98532.89
2019-01-18T12:44:50.912Z,98526.06
2019-01-18T12:47:23.502Z,98529.42
2019-01-18T12:49:57.669Z,98529.19
2019-01-18T12:52:31.240Z,98528.30
2019-01-18T12:55:01.991Z,98520.85
2019-01-18T12:57:34.021Z,98534.03
2019-01-18T13:00:08.471Z,98538.03
2019-01-18T13:02:40.887Z,98533.20
2019-01-18T13:05:17.382Z,98544.83
2019-01-18T13:07:50.308Z,98538.92
2019-01-18T13:10:22.332Z,98542.79
2019-01-18T13:12:54.750Z,98546.42
2019-01-18T13:15:32.745Z,98552.30
2019-01-18T13:18:05.062Z,98550.56
2019-01-18T13:20:37.405Z,98549.72
2019-01-18T13:23:09.802Z,98543.47
2019-01-18T13:25:42.152Z,98542.64
2019-01-18T13:28:14.494Z,98542.39
2019-01-18T13:30:47.110Z,98544.33
2019-01-18T13:33:18.856Z,98539.80
2019-01-18T13:35:51.172Z,98542.02
2019-01-18T13:38:23.764Z,98538.81
2019-01-18T13:40:55.586Z,98541.02
2019-01-18T13:43:28.103Z,98540.08
2019-01-18T13:46:00.482Z,98543.85
2019-01-18T13:48:32.855Z,98544.28
2019-01-18T13:51:05.204Z,98546.02
2019-01-18T13:53:37.586Z,98541.66
2019-01-18T13:56:09.933Z,98546.73
2019-01-18T13:58:42.765Z,98541.41
2019-01-18T14:01:14.790Z,98532.36
2019-01-18T14:03:47.266Z,98545.57
2019-01-18T14:06:19.660Z,98545.05
2019-01-18T14:08:52.050Z,98548.34
2019-01-18T14:11:24.369Z,98548.03
2019-01-18T14:13:56.716Z,98546.23
2019-01-18T14:16:29.317Z,98544.50
2019-01-18T14:19:01.204Z,98543.42
2019-01-18T14:21:33.506Z,98547.38
2019-01-18T14:24:05.852Z,98542.77
2019-01-18T14:26:38.166Z,98552.95
2019-01-18T14:29:10.819Z,98560.20
2019-01-18T14:31:42.670Z,98560.77
2019-01-18T14:34:14.965Z,98563.05
2019-01-18T14:36:47.286Z,98564.75
2019-01-18T14:39:19.586Z,98571.61
2019-01-18T14:41:53.269Z,98574.70
2019-01-18T14:44:26.106Z,98577.94
2019-01-18T14:46:58.141Z,98580.52
2019-01-18T14:49:32.581Z,98577.84
2019-01-18T14:52:05.373Z,98580.12
2019-01-18T14:54:37.532Z,98581.19
2019-01-18T14:57:09.272Z,98576.57
2019-01-18T14:59:42.034Z,98583.27
2019-01-18T15:02:14.437Z,98577.23
2019-01-18T15:04:47.771Z,98593.59
2019-01-18T15:07:20.106Z,98589.13
2019-01-18T15:09:52.499Z,98583.26
2019-01-18T15:12:25.330Z,98591.63
2019-01-18T15:14:57.417Z,98586.86
2019-01-18T15:17:34.593Z,98593.80
2019-01-18T15:20:05.607Z,98598.11
2019-01-18T15:22:37.659Z,98593.70
2019-01-18T15:25:11.163Z,98593.22
2019-01-18T15:27:41.997Z,98598.09
2019-01-18T15:30:17.296Z,98600.58
2019-01-18T15:32:49.693Z,98600.41
2019-01-18T15:35:25.479Z,98603.64
2019-01-18T15:37:58.287Z,98609.98
2019-01-18T15:40:33.323Z,98610.24
2019-01-18T15:43:06.179Z,98604.82
2019-01-18T15:45:38.242Z,98607.86
2019-01-18T15:48:10.624Z,98616.39
2019-01-18T15:50:43.215Z,98619.72
2019-01-18T15:53:15.598Z,98615.17
2019-01-18T15:55:47.940Z,98618.50
2019-01-18T15:58:20.275Z,98618.43
2019-01-18T16:00:52.592Z,98628.19
2019-01-18T16:03:25.029Z,98625.09
2019-01-18T16:05:57.378Z,98631.79
2019-01-18T16:08:30.064Z,98628.03
2019-01-18T16:11:01.882Z,98631.63
2019-01-18T16:13:34.283Z,98637.91
2019-01-18T16:16:37.473Z,98636.74
2019-01-18T16:19:10.286Z,98638.73
2019-01-18T16:21:42.458Z,98638.26
2019-01-18T16:24:14.786Z,98637.08
2019-01-18T16:26:47.230Z,98635.17
2019-01-18T16:29:18.966Z,98637.52
2019-01-18T16:31:51.626Z,98635.88
2019-01-18T16:34:23.557Z,98642.48
2019-01-18T16:36:55.902Z,98644.17
2019-01-18T16:39:27.764Z,98640.33
2019-01-18T16:41:59.693Z,98641.41
2019-01-18T16:44:31.439Z,98640.11
2019-01-18T16:47:03.210Z,98640.33
2019-01-18T16:49:34.962Z,98644.76
2019-01-18T16:52:06.899Z,98640.39
2019-01-18T16:54:38.676Z,98636.63
2019-01-18T16:57:10.464Z,98634.55
2019-01-18T16:59:42.497Z,98638.52
2019-01-18T17:02:14.584Z,98643.64
2019-01-18T17:04:46.345Z,98645.06
2019-01-18T17:07:18.167Z,98634.22
2019-01-18T17:09:50.068Z,98642.69
2019-01-18T17:12:22.125Z,98645.19
2019-01-18T17:14:53.887Z,98642.34
2019-01-18T17:17:25.749Z,98644.95
2019-01-18T17:19:57.561Z,98646.95
2019-01-18T17:22:29.389Z,98641.77
2019-01-18T17:25:01.165Z,98641.02
2019-01-18T17:27:32.999Z,98645.81
2019-01-18T17:30:05.651Z,98643.75
2019-01-18T17:32:37.796Z,98646.22
2019-01-18T17:35:14.806Z,98649.61
2019-01-18T17:37:55.134Z,98649.63
2019-01-18T17:41:04.899Z,98649.65
2019-01-18T17:44:45.695Z,98647.18
2019-01-18T17:48:05.226Z,98648.23
2019-01-18T17:51:27.272Z,98650.44
2019-01-18T17:54:41.213Z,98648.75
2019-01-18T17:57:37.197Z,98649.94
2019-01-18T18:01:09.216Z,98644.84
2019-01-18T18:03:59.419Z,98647.59
2019-01-18T18:07:32.332Z,98650.38
2019-01-18T18:11:23.347Z,98653.88
2019-01-18T18:14:49.982Z,98663.82
2019-01-18T18:18:05.723Z,98663.57
2019-01-18T18:21:40.938Z,98667.59
2019-01-18T18:25:05.616Z,98665.49
2019-01-18T18:28:25.583Z,98665.48
2019-01-18T18:31:32.048Z,98667.71
2019-01-18T18:34:52.770Z,98668.72
2019-01-18T18:38:49.434Z,98666.91
2019-01-18T18:42:32.383Z,98663.00
2019-01-18T18:45:59.434Z,98666.47
2019-01-18T18:49:49.570Z,98662.05
2019-01-18T18:53:08.334Z,98668.48
2019-01-18T18:56:39.535Z,98669.90
2019-01-18T18:59:58.534Z,98678.48
2019-01-18T19:02:58.821Z,98679.38
2019-01-18T19:06:16.701Z,98668.07
2019-01-18T19:09:38.551Z,98655.62
2019-01-18T19:13:13.922Z,98668.81
2019-01-18T19:16:50.876Z,98661.93
2019-01-18T19:20:17.831Z,98665.53
2019-01-18T19:23:30.977Z,98661.16
2019-01-18T19:27:02.961Z,98660.27
2019-01-18T19:30:47.066Z,98667.77
2019-01-18T19:33:55.586Z,98654.55
2019-01-18T19:37:14.363Z,98657.09
2019-01-18T19:40:49.112Z,98654.78
2019-01-18T19:44:09.059Z,98650.89
2019-01-18T19:47:37.583Z,98649.66
2019-01-18T19:51:08.956Z,98662.19
2019-01-18T19:54:12.232Z,98659.30
2019-01-18T19:57:39.221Z,98658.77
2019-01-18T20:01:09.434Z,98652.38
2019-01-18T20:05:08.556Z,98654.48
2019-01-18T20:08:05.172Z,98658.38
2019-01-18T20:11:40.270Z,98655.15
2019-01-18T20:15:12.145Z,98655.31
2019-01-18T20:18:19.053Z,98656.56
2019-01-18T20:21:52.873Z,98658.20
2019-01-18T20:25:30.119Z,98652.73
2019-01-18T20:29:17.015Z,98651.98
2019-01-18T20:33:06.274Z,98650.69
2019-01-18T20:36:14.356Z,98648.41
2019-01-18T20:39:31.810Z,98642.19
2019-01-18T20:43:09.251Z,98640.95
2019-01-18T20:46:49.427Z,98645.67
2019-01-18T20:50:31.739Z,98642.34
2019-01-18T20:53:46.652Z,98641.63
2019-01-18T20:57:24.116Z,98643.66
2019-01-18T21:00:40.940Z,98639.71
2019-01-18T21:04:16.614Z,98640.53
2019-01-18T21:07:17.405Z,98645.13
2019-01-18T21:10:45.448Z,98641.92
2019-01-18T21:14:25.587Z,98643.19
2019-01-18T21:18:12.640Z,98641.20
2019-01-18T21:22:00.064Z,98640.19
2019-01-18T21:25:46.977Z,98646.35
2019-01-18T21:29:23.660Z,98649.27
2019-01-18T21:32:55.708Z,98640.54
2019-01-18T21:36:49.084Z,98637.61
2019-01-18T21:40:29.145Z,98641.55
2019-01-18T21:43:54.839Z,98636.24
2019-01-18T21:47:54.204Z,98634.94
2019-01-18T21:51:09.135Z,98639.44
2019-01-18T21:54:34.962Z,98634.36
2019-01-18T21:58:15.586Z,98638.09
2019-01-18T22:01:33.615Z,98640.48
2019-01-18T22:04:40.647Z,98634.74
2019-01-18T22:07:58.263Z,98628.86
2019-01-18T22:10:59.689Z,98635.19
2019-01-18T22:14:36.990Z,98630.91
2019-01-18T22:18:06.083Z,98635.55
2019-01-18T22:21:16.109Z,98632.59
2019-01-18T22:24:27.697Z,98633.39
2019-01-18T22:28:07.088Z,98635.18
2019-01-18T22:32:01.380Z,98631.73
2019-01-18T22:35:29.513Z,98625.09
2019-01-18T22:38:44.764Z,98628.53
2019-01-18T22:42:27.718Z,98621.87
2019-01-18T22:45:24.687Z,98623.13
2019-01-18T22:48:41.387Z,98617.09
2019-01-18T22:52:02.527Z,98630.42
2019-01-18T22:55:20.197Z,98617.36
2019-01-18T22:58:57.013Z,98620.65
2019-01-18T23:02:46.271Z,98627.67
2019-01-18T23:06:29.662Z,98627.62
2019-01-18T23:09:55.557Z,98615.44
2019-01-18T23:13:06.756Z,98617.84
2019-01-18T23:16:40.212Z,98617.73
2019-01-18T23:20:19.226Z,98615.19
2019-01-18T23:23:28.942Z,98619.08
2019-01-18T23:26:49.696Z,98607.51
2019-01-18T23:29:45.717Z,98614.28
2019-01-18T23:33:16.011Z,98609.88
2019-01-18T23:36:50.766Z,98613.91
2019-01-18T23:40:26.544Z,98613.81
2019-01-18T23:43:26.572Z,98602.41
2019-01-18T23:47:10.945Z,98609.52
2019-01-18T23:50:48.586Z,98602.36
2019-01-18T23:53:44.786Z,98601.04
2019-01-18T23:56:54.819Z,98597.36
